Time;durP1;ratioP1;P1;durP2;ratioP2;P2;SDS_P1;SDS_P2;PMS_P1;PMS_P2;Temp;Humidity;BMP_temperature;BMP_pressure;BME280_temperature;BME280_humidity;BME280_pressure;Samples;Min_cycle;Max_cycle;Signal;HPM_P1;HPM_P2
2023/04/14 00:00:40;;;;;;;7.68;2.00;;;3.00;99.90;;;;;;5058558;28;20048;-23
2023/04/14 00:03:06;;;;;;;9.68;2.38;;;3.00;99.90;;;;;;5076990;28;20041;-23
2023/04/14 00:05:33;;;;;;;11.30;2.17;;;3.30;99.90;;;;;;5059631;28;20041;-22
2023/04/14 00:07:59;;;;;;;13.50;3.25;;;2.90;99.90;;;;;;5076917;28;20045;-23
2023/04/14 00:10:25;;;;;;;9.88;1.90;;;2.80;99.90;;;;;;5076297;28;20509;-23
2023/04/14 00:12:52;;;;;;;12.23;2.50;;;2.80;99.90;;;;;;5077134;28;20037;-23
2023/04/14 00:15:18;;;;;;;11.82;2.55;;;2.70;99.90;;;;;;5076272;28;20071;-23
2023/04/14 00:17:43;;;;;;;14.48;2.20;;;2.60;99.90;;;;;;5058292;28;20052;-23
2023/04/14 00:20:09;;;;;;;13.68;2.45;;;2.60;99.90;;;;;;5077017;28;20055;-22
2023/04/14 00:22:35;;;;;;;10.20;2.30;;;2.50;99.90;;;;;;5058187;28;20490;-23
2023/04/14 00:25:01;;;;;;;7.80;2.25;;;2.50;99.90;;;;;;5076344;28;20046;-23
2023/04/14 00:27:28;;;;;;;15.23;2.08;;;3.50;1.00;;;;;;5058373;28;20470;-23
2023/04/14 00:29:54;;;;;;;10.00;3.10;;;2.50;1.00;;;;;;5075963;28;20558;-23
2023/04/14 00:32:20;;;;;;;13.40;2.07;;;2.50;1.00;;;;;;5075785;28;20119;-22
2023/04/14 00:34:45;;;;;;;12.80;2.22;;;2.40;1.00;;;;;;5055229;28;20103;-23
2023/04/14 00:37:11;;;;;;;7.60;2.13;;;2.40;1.00;;;;;;5055662;28;20475;-23
2023/04/14 00:39:37;;;;;;;9.77;2.20;;;2.30;1.00;;;;;;5055770;28;20566;-23
2023/04/14 00:42:03;;;;;;;13.18;2.88;;;2.20;99.90;;;;;;5055479;28;20045;-23
2023/04/14 00:44:29;;;;;;;12.77;2.57;;;2.20;1.00;;;;;;5054969;28;20467;-22
2023/04/14 00:46:56;;;;;;;7.45;1.92;;;2.10;99.90;;;;;;5054611;28;20041;-22
2023/04/14 00:49:22;;;;;;;11.50;2.67;;;1.90;99.90;;;;;;5055513;28;20053;-22
2023/04/14 00:51:48;;;;;;;14.77;2.03;;;2.00;1.00;;;;;;5038901;28;20045;-23
2023/04/14 00:54:17;;;;;;;10.33;2.00;;;2.50;1.00;;;;;;5054382;28;20131;-22
2023/04/14 00:56:43;;;;;;;14.83;2.47;;;1.80;99.90;;;;;;5055497;28;20091;-22
2023/04/14 00:59:09;;;;;;;10.07;2.37;;;1.80;1.00;;;;;;5055493;28;20079;-22
2023/04/14 01:01:39;;;;;;;11.13;2.63;;;1.80;1.00;;;;;;5056118;28;20045;-22
2023/04/14 01:04:05;;;;;;;10.20;2.10;;;1.80;1.00;;;;;;5055839;28;20175;-23
2023/04/14 01:06:32;;;;;;;13.27;2.43;;;1.80;1.00;;;;;;5056098;28;20052;-23
2023/04/14 01:08:58;;;;;;;15.87;3.07;;;1.80;1.00;;;;;;5055257;28;20537;-22
2023/04/14 01:11:36;;;;;;;15.10;3.43;;;1.80;1.00;;;;;;5055195;28;20057;-22
2023/04/14 01:14:21;;;;;;;18.43;2.93;;;1.80;1.00;;;;;;5055191;28;20106;-22
2023/04/14 01:16:50;;;;;;;15.00;3.30;;;1.80;1.00;;;;;;5055404;28;20053;-22
2023/04/14 01:19:31;;;;;;;8.20;1.90;;;1.90;1.00;;;;;;5053770;28;20056;-23
2023/04/14 01:22:04;;;;;;;12.33;2.90;;;1.90;1.00;;;;;;5054891;28;20056;-22
2023/04/14 01:24:42;;;;;;;;;;;1.90;1.00;;;;;;5056073;28;20045;-23
2023/04/14 01:27:23;;;;;;;11.97;3.00;;;1.90;1.00;;;;;;5054836;28;19921;-22
2023/04/14 01:30:19;;;;;;;9.07;1.80;;;1.90;1.00;;;;;;5055669;28;20379;-23
2023/04/14 01:32:46;;;;;;;13.20;2.43;;;1.90;1.00;;;;;;5054821;28;20040;-22
2023/04/14 01:35:19;;;;;;;12.17;2.43;;;1.90;1.00;;;;;;5074216;28;20152;-22
2023/04/14 01:37:51;;;;;;;;;;;1.90;1.00;;;;;;5058381;28;20425;-22
2023/04/14 01:40:18;;;;;;;10.90;2.87;;;1.90;1.00;;;;;;5074576;28;20405;-23
2023/04/14 01:42:50;;;;;;;13.27;2.40;;;1.90;1.00;;;;;;5074364;28;20084;-23
2023/04/14 01:45:23;;;;;;;13.60;2.70;;;1.90;1.00;;;;;;5074470;28;20478;-23
2023/04/14 01:47:50;;;;;;;15.20;3.45;;;2.00;1.00;;;;;;5074760;28;20513;-23
2023/04/14 01:50:17;;;;;;;14.30;2.87;;;2.00;1.00;;;;;;5056534;28;20091;-23
2023/04/14 01:52:50;;;;;;;11.27;3.13;;;2.00;1.00;;;;;;5057206;28;20061;-23
2023/04/14 01:55:18;;;;;;;12.13;2.85;;;2.00;1.00;;;;;;5074324;28;20041;-22
2023/04/14 01:57:49;;;;;;;25.97;3.23;;;2.00;1.00;;;;;;5074197;28;20059;-22
2023/04/14 02:00:20;;;;;;;10.53;2.70;;;2.00;1.00;;;;;;5074549;28;20098;-23
2023/04/14 02:02:48;;;;;;;9.60;2.77;;;2.00;1.00;;;;;;5074612;28;20360;-22
2023/04/14 02:05:15;;;;;;;10.77;3.23;;;2.00;1.00;;;;;;5074636;28;20123;-22
2023/04/14 02:07:43;;;;;;;10.13;2.87;;;2.10;1.00;;;;;;5074102;28;20052;-23
2023/04/14 02:10:10;;;;;;;9.17;3.00;;;2.10;1.00;;;;;;5074077;28;20108;-22
2023/04/14 02:12:40;;;;;;;11.53;3.83;;;2.10;1.00;;;;;;5074023;28;20090;-22
2023/04/14 02:15:11;;;;;;;11.80;2.70;;;2.10;1.00;;;;;;5056372;28;20091;-22
2023/04/14 02:17:37;;;;;;;16.43;3.27;;;2.10;1.00;;;;;;5074306;28;20123;-22
2023/04/14 02:20:04;;;;;;;11.77;2.50;;;2.10;1.00;;;;;;5039960;28;20055;-22
2023/04/14 02:22:30;;;;;;;11.60;3.40;;;2.10;1.00;;;;;;5056953;28;20045;-22
2023/04/14 02:24:56;;;;;;;7.63;2.90;;;2.10;1.00;;;;;;5056164;28;20102;-23
2023/04/14 02:27:48;;;;;;;9.13;3.30;;;2.10;1.00;;;;;;5056014;28;20079;-22
2023/04/14 02:30:26;;;;;;;10.37;3.27;;;2.10;1.00;;;;;;5074176;28;20051;-22
2023/04/14 02:33:00;;;;;;;7.67;2.90;;;2.10;1.00;;;;;;5039132;28;20084;-22
2023/04/14 02:35:28;;;;;;;9.67;3.43;;;2.00;1.00;;;;;;5074377;28;20064;-22
2023/04/14 02:38:05;;;;;;;8.67;2.90;;;2.00;1.00;;;;;;5073723;28;20123;-23
2023/04/14 02:40:40;;;;;;;8.87;2.37;;;1.90;1.00;;;;;;5074598;28;20071;-22
2023/04/14 02:43:29;;;;;;;9.13;2.90;;;1.90;1.00;;;;;;5074201;28;20051;-23
2023/04/14 02:45:57;;;;;;;10.67;3.13;;;1.80;1.00;;;;;;5073681;28;20040;-22
2023/04/14 02:48:25;;;;;;;11.50;2.80;;;1.80;11.20;;;;;;5055583;28;20086;-22
2023/04/14 02:50:53;;;;;;;12.73;2.97;;;1.80;3.30;;;;;;5039042;28;20059;-22
2023/04/14 02:53:22;;;;;;;12.13;2.83;;;1.80;54.50;;;;;;5074100;28;20086;-22
2023/04/14 02:55:51;;;;;;;10.97;2.80;;;1.70;25.00;;;;;;5073564;28;20410;-23
2023/04/14 02:58:17;;;;;;;9.03;3.00;;;2.10;44.50;;;;;;5073530;28;20041;-22
2023/04/14 03:00:43;;;;;;;8.77;2.70;;;1.90;66.30;;;;;;5055597;28;20403;-22
2023/04/14 03:03:13;;;;;;;12.27;2.93;;;1.70;35.50;;;;;;5055547;28;20041;-22
2023/04/14 03:05:40;;;;;;;8.70;2.93;;;1.80;67.30;;;;;;5073237;28;20585;-22
2023/04/14 03:08:08;;;;;;;12.80;3.47;;;1.80;71.50;;;;;;5073410;28;20052;-22
2023/04/14 03:10:35;;;;;;;11.97;3.47;;;1.80;66.50;;;;;;5056476;28;20375;-22
2023/04/14 03:13:02;;;;;;;10.33;2.80;;;1.80;48.30;;;;;;5059291;28;20487;-23
2023/04/14 03:15:30;;;;;;;10.13;3.00;;;1.70;38.70;;;;;;5060107;28;20041;-23
2023/04/14 03:17:57;;;;;;;14.30;3.00;;;1.70;31.40;;;;;;5078203;28;20157;-22
2023/04/14 03:20:24;;;;;;;11.67;2.97;;;1.60;24.50;;;;;;5059603;28;20482;-22
2023/04/14 03:23:03;;;;;;;10.93;2.73;;;1.60;33.60;;;;;;5077966;28;20101;-22
2023/04/14 03:25:31;;;;;;;11.20;2.90;;;1.90;42.40;;;;;;5077795;28;20060;-22
2023/04/14 03:28:01;;;;;;;8.47;3.17;;;1.60;54.70;;;;;;5077140;28;20044;-22
2023/04/14 03:30:30;;;;;;;9.90;2.50;;;1.60;56.20;;;;;;5077102;28;20117;-22
2023/04/14 03:33:05;;;;;;;9.30;3.07;;;1.60;56.70;;;;;;5076828;28;20036;-22
2023/04/14 03:35:33;;;;;;;14.07;3.70;;;1.60;57.70;;;;;;5077047;28;20044;-22
2023/04/14 03:38:01;;;;;;;9.33;3.53;;;1.50;48.70;;;;;;5059050;28;20052;-23
2023/04/14 03:40:30;;;;;;;11.57;3.60;;;1.50;55.80;;;;;;5059299;28;20501;-22
2023/04/14 03:43:01;;;;;;;7.93;2.23;;;1.60;65.70;;;;;;5076766;28;20101;-23
2023/04/14 03:45:27;;;;;;;10.53;2.70;;;1.70;69.40;;;;;;5076857;28;20132;-22
2023/04/14 03:48:01;;;;;;;9.83;3.67;;;1.60;76.20;;;;;;5076721;28;20045;-22
2023/04/14 03:50:35;;;;;;;10.77;2.37;;;1.60;79.80;;;;;;5076746;28;20078;-22
2023/04/14 03:53:04;;;;;;;11.87;2.90;;;1.60;90.00;;;;;;5076437;28;20482;-22
2023/04/14 03:55:34;;;;;;;11.50;2.93;;;1.60;90.10;;;;;;5077164;28;20040;-22
2023/04/14 03:58:02;;;;;;;10.57;3.27;;;1.70;83.80;;;;;;5076651;28;20048;-22
2023/04/14 04:00:29;;;;;;;12.17;3.20;;;1.70;84.50;;;;;;5077080;28;20084;-22
2023/04/14 04:02:56;;;;;;;10.87;3.03;;;1.70;99.90;;;;;;5076463;28;20386;-22
2023/04/14 04:05:22;;;;;;;7.67;2.50;;;1.80;99.90;;;;;;5076466;28;20048;-22
2023/04/14 04:07:52;;;;;;;10.50;3.03;;;1.80;99.90;;;;;;5076446;28;20067;-23
2023/04/14 04:10:20;;;;;;;8.33;2.83;;;1.90;99.90;;;;;;5076389;28;20137;-22
2023/04/14 04:12:47;;;;;;;9.90;2.63;;;1.80;94.30;;;;;;5076350;28;20052;-22
2023/04/14 04:15:13;;;;;;;13.57;3.20;;;2.30;90.90;;;;;;5058971;28;20088;-22
2023/04/14 04:17:40;;;;;;;5.80;2.47;;;1.70;81.70;;;;;;5076806;28;20084;-23
2023/04/14 04:20:14;;;;;;;8.20;2.47;;;1.70;76.40;;;;;;5058554;28;20059;-22
2023/04/14 04:22:43;;;;;;;18.37;3.33;;;1.60;77.00;;;;;;5041924;28;20497;-22
2023/04/14 04:25:10;;;;;;;7.43;3.00;;;1.50;94.00;;;;;;5059314;28;20056;-22
2023/04/14 04:27:36;;;;;;;11.43;2.80;;;1.50;99.90;;;;;;5076014;28;20048;-22
2023/04/14 04:30:06;;;;;;;7.87;2.70;;;1.50;99.90;;;;;;5058336;28;20045;-22
2023/04/14 04:32:32;;;;;;;13.37;4.00;;;1.50;99.90;;;;;;5075500;28;20048;-22
2023/04/14 04:34:58;;;;;;;10.17;3.10;;;1.40;99.90;;;;;;5076550;28;20096;-22
2023/04/14 04:37:27;;;;;;;9.00;2.77;;;1.40;99.90;;;;;;5058169;28;20491;-22
2023/04/14 04:39:56;;;;;;;13.57;3.20;;;1.40;99.90;;;;;;5075835;28;20056;-22
2023/04/14 04:42:22;;;;;;;10.13;3.13;;;1.40;99.90;;;;;;5076034;28;20051;-22
2023/04/14 04:44:48;;;;;;;8.73;3.23;;;1.40;99.90;;;;;;5076536;28;20044;-22
2023/04/14 04:47:14;;;;;;;12.10;3.50;;;1.40;99.90;;;;;;5075538;28;20044;-22
2023/04/14 04:49:40;;;;;;;11.83;3.67;;;1.40;99.90;;;;;;5040915;28;20052;-22
2023/04/14 04:52:06;;;;;;;17.73;5.00;;;1.40;99.90;;;;;;5075991;28;20045;-22
2023/04/14 04:54:32;;;;;;;13.33;3.80;;;1.40;99.90;;;;;;5075405;28;20363;-22
2023/04/14 04:56:58;;;;;;;13.77;3.90;;;1.50;99.90;;;;;;5075922;28;20040;-22
2023/04/14 04:59:24;;;;;;;9.77;3.53;;;1.50;99.90;;;;;;5075317;28;20056;-23
2023/04/14 05:01:50;;;;;;;15.23;3.77;;;2.00;99.90;;;;;;5057539;28;20055;-22
2023/04/14 05:04:16;;;;;;;10.57;3.33;;;1.50;99.90;;;;;;5057464;28;20048;-22
2023/04/14 05:06:42;;;;;;;8.93;3.43;;;1.50;99.90;;;;;;5074863;28;20048;-22
2023/04/14 05:09:07;;;;;;;10.83;3.77;;;1.50;99.90;;;;;;5075104;28;20051;-22
2023/04/14 05:11:34;;;;;;;12.50;3.77;;;1.50;99.90;;;;;;5075090;28;20048;-23
2023/04/14 05:14:00;;;;;;;9.57;3.50;;;1.60;99.90;;;;;;5075552;28;20040;-22
2023/04/14 05:16:27;;;;;;;10.80;3.70;;;1.60;99.90;;;;;;5074977;28;20055;-22
2023/04/14 05:18:53;;;;;;;10.97;3.70;;;1.60;99.90;;;;;;5057113;28;20059;-22
2023/04/14 05:21:19;;;;;;;10.00;3.70;;;1.60;99.90;;;;;;5074919;28;20136;-22
2023/04/14 05:23:45;;;;;;;15.83;5.27;;;1.70;99.90;;;;;;5056933;28;20120;-23
2023/04/14 05:26:12;;;;;;;15.80;3.77;;;1.70;99.90;;;;;;5057080;28;20048;-22
2023/04/14 05:28:41;;;;;;;12.37;3.67;;;1.80;99.90;;;;;;5074730;28;20044;-22
2023/04/14 05:31:07;;;;;;;11.97;3.47;;;1.80;99.90;;;;;;5057328;28;20127;-22
2023/04/14 05:33:36;;;;;;;15.43;5.10;;;1.90;99.90;;;;;;5056052;28;20136;-23
2023/04/14 05:36:01;;;;;;;9.27;3.53;;;2.30;99.90;;;;;;5075128;28;20049;-23
2023/04/14 05:38:27;;;;;;;10.50;3.83;;;2.00;99.90;;;;;;5074495;28;20132;-22
2023/04/14 05:40:53;;;;;;;8.13;3.37;;;2.00;99.90;;;;;;5056786;28;20049;-22
2023/04/14 05:43:19;;;;;;;10.90;3.33;;;2.00;99.90;;;;;;5074360;28;20052;-22
2023/04/14 05:45:47;;;;;;;10.80;2.70;;;2.10;99.90;;;;;;5074307;28;20040;-23
2023/04/14 05:48:15;;;;;;;12.97;3.57;;;2.10;99.90;;;;;;5057580;28;20387;-22
2023/04/14 05:50:41;;;;;;;11.00;3.43;;;2.20;99.90;;;;;;5074425;28;20056;-22
2023/04/14 05:53:07;;;;;;;11.93;3.77;;;2.20;99.90;;;;;;5056842;28;20052;-23
2023/04/14 05:55:33;;;;;;;8.80;3.67;;;2.30;99.90;;;;;;5073989;28;20076;-23
2023/04/14 05:57:59;;;;;;;12.77;4.27;;;2.40;99.90;;;;;;5057522;28;20044;-23
2023/04/14 06:00:24;;;;;;;7.63;3.17;;;2.40;99.90;;;;;;5074316;28;20102;-23
2023/04/14 06:02:51;;;;;;;10.83;3.33;;;2.60;99.90;;;;;;5074136;28;20045;-22
2023/04/14 06:05:17;;;;;;;9.93;3.43;;;2.70;99.90;;;;;;5074175;28;20047;-23
2023/04/14 06:07:43;;;;;;;11.43;2.90;;;2.80;99.90;;;;;;5074181;28;20107;-23
2023/04/14 06:10:09;;;;;;;9.90;2.60;;;3.00;99.90;;;;;;5074072;28;20053;-22
2023/04/14 06:12:36;;;;;;;10.85;2.83;;;3.00;99.90;;;;;;5074091;28;20037;-22
2023/04/14 06:15:04;;;;;;;11.53;2.70;;;3.30;99.90;;;;;;5074290;28;20098;-22
2023/04/14 06:17:30;;;;;;;14.27;3.03;;;3.20;99.90;;;;;;5073945;28;20052;-22
2023/04/14 06:19:56;;;;;;;6.88;2.85;;;3.30;99.90;;;;;;5074753;28;20080;-22
2023/04/14 06:22:27;;;;;;;6.53;2.22;;;3.40;99.90;;;;;;5073541;28;20514;-22
2023/04/14 06:24:53;;;;;;;9.80;2.92;;;3.50;99.90;;;;;;5040590;28;20052;-22
2023/04/14 06:27:19;;;;;;;9.73;2.67;;;3.70;99.90;;;;;;5073811;28;20088;-22
2023/04/14 06:29:45;;;;;;;9.75;2.72;;;3.90;99.90;;;;;;5074080;28;20450;-22
2023/04/14 06:32:10;;;;;;;5.63;2.13;;;4.00;99.90;;;;;;5056113;28;20386;-22
2023/04/14 06:34:36;;;;;;;9.43;3.05;;;4.10;99.90;;;;;;5074068;28;20117;-22
2023/04/14 06:37:02;;;;;;;8.13;2.67;;;4.20;99.90;;;;;;5056138;28;20059;-22
2023/04/14 06:39:27;;;;;;;7.78;3.00;;;4.40;99.90;;;;;;5055632;28;20487;-22
2023/04/14 06:41:53;;;;;;;12.50;2.47;;;4.50;99.90;;;;;;5074174;28;20123;-23
2023/04/14 06:44:19;;;;;;;11.10;2.95;;;4.70;99.90;;;;;;5056026;28;20495;-23
2023/04/14 06:46:45;;;;;;;9.57;2.75;;;4.80;99.90;;;;;;5073902;28;20044;-23
2023/04/14 06:49:10;;;;;;;8.43;2.80;;;5.10;99.90;;;;;;5055881;28;20048;-23
2023/04/14 06:51:36;;;;;;;7.00;2.20;;;5.30;99.90;;;;;;5073598;28;20055;-23
2023/04/14 06:54:02;;;;;;;8.38;2.33;;;5.50;99.20;;;;;;5055948;28;20048;-23
2023/04/14 06:56:28;;;;;;;11.85;3.10;;;5.70;78.60;;;;;;5074150;28;20054;-23
2023/04/14 06:58:53;;;;;;;9.40;2.53;;;5.80;46.10;;;;;;5074027;28;20103;-22
2023/04/14 07:01:19;;;;;;;7.18;2.25;;;6.10;1.00;;;;;;5073493;28;20051;-23
2023/04/14 07:03:45;;;;;;;12.07;2.42;;;6.20;1.00;;;;;;5073433;28;20101;-23
2023/04/14 07:06:15;;;;;;;7.75;2.33;;;6.40;1.00;;;;;;5055824;28;20048;-23
2023/04/14 07:08:42;;;;;;;12.52;2.03;;;6.50;99.90;;;;;;5040366;28;20048;-23
2023/04/14 07:11:10;;;;;;;11.38;2.75;;;6.70;99.90;;;;;;5073069;28;20489;-23
2023/04/14 07:13:37;;;;;;;8.43;2.30;;;6.80;99.90;;;;;;5073149;28;20487;-23
2023/04/14 07:16:05;;;;;;;10.55;3.30;;;7.00;99.90;;;;;;5055680;28;20487;-23
2023/04/14 07:18:31;;;;;;;8.00;2.20;;;7.10;99.90;;;;;;5073619;28;20048;-23
2023/04/14 07:21:00;;;;;;;10.25;2.30;;;7.20;99.90;;;;;;5073234;28;20045;-23
2023/04/14 07:23:26;;;;;;;12.07;2.30;;;7.40;99.90;;;;;;5055446;28;20049;-23
2023/04/14 07:25:56;;;;;;;6.80;2.10;;;7.50;99.90;;;;;;5073447;28;20129;-23
2023/04/14 07:28:23;;;;;;;11.00;2.17;;;7.60;99.90;;;;;;5073252;28;20059;-23
2023/04/14 07:30:50;;;;;;;8.88;2.10;;;7.80;99.90;;;;;;5056083;28;20040;-23
2023/04/14 07:33:18;;;;;;;12.48;3.15;;;7.90;99.90;;;;;;5072921;28;20422;-23
2023/04/14 07:35:44;;;;;;;4.80;2.00;;;8.10;99.90;;;;;;5073514;28;20462;-23
2023/04/14 07:38:10;;;;;;;10.93;1.92;;;8.20;1.00;;;;;;5073140;28;20163;-23
2023/04/14 07:40:36;;;;;;;7.05;1.70;;;8.30;1.00;;;;;;5055470;28;20131;-24
2023/04/14 07:43:02;;;;;;;8.38;1.65;;;8.50;99.90;;;;;;5072991;28;20090;-23
2023/04/14 07:45:27;;;;;;;5.40;1.67;;;8.60;4.60;;;;;;5072766;28;20562;-23
2023/04/14 07:47:53;;;;;;;8.10;1.60;;;8.70;56.10;;;;;;5055284;28;20084;-23
2023/04/14 07:50:19;;;;;;;9.15;2.03;;;8.80;99.90;;;;;;5073059;28;20083;-24
2023/04/14 07:52:45;;;;;;;6.97;1.60;;;8.90;99.90;;;;;;5055323;28;20044;-24
2023/04/14 07:55:11;;;;;;;6.47;1.83;;;9.00;99.90;;;;;;5073066;28;20052;-24
2023/04/14 07:57:36;;;;;;;19.27;3.20;;;9.10;1.00;;;;;;5073318;28;20050;-24
2023/04/14 08:00:03;;;;;;;8.93;1.65;;;9.10;1.00;;;;;;5058790;28;20101;-24
2023/04/14 08:02:29;;;;;;;9.88;2.67;;;9.20;1.00;;;;;;5059684;28;20044;-24
2023/04/14 08:04:55;;;;;;;3.72;1.45;;;9.30;99.90;;;;;;5058743;28;20052;-24
2023/04/14 08:07:20;;;;;;;15.80;2.08;;;9.30;99.90;;;;;;5076473;28;20044;-24
2023/04/14 08:09:48;;;;;;;5.88;1.70;;;9.50;99.90;;;;;;5076959;28;20185;-24
2023/04/14 08:12:14;;;;;;;4.97;1.58;;;9.50;99.90;;;;;;5076337;28;20534;-24
2023/04/14 08:14:40;;;;;;;7.60;2.72;;;9.60;99.90;;;;;;5059513;28;20123;-24
2023/04/14 08:17:06;;;;;;;8.55;1.85;;;9.70;99.90;;;;;;5076274;28;20502;-26
2023/04/14 08:19:32;;;;;;;9.80;1.80;;;9.90;1.00;;;;;;5058882;28;20051;-23
2023/04/14 08:21:58;;;;;;;12.82;3.13;;;9.80;99.90;;;;;;5076136;28;20056;-24
2023/04/14 08:24:24;;;;;;;9.32;1.80;;;9.90;9.20;;;;;;5058546;28;20048;-24
2023/04/14 08:26:50;;;;;;;7.60;1.83;;;10.10;1.00;;;;;;5076566;28;20056;-24
2023/04/14 08:29:16;;;;;;;9.10;1.60;;;10.20;1.00;;;;;;5058536;28;20056;-24
2023/04/14 08:31:41;;;;;;;9.38;1.90;;;10.20;99.90;;;;;;5058478;28;20580;-24
2023/04/14 08:34:07;;;;;;;7.07;1.85;;;10.20;12.80;;;;;;5076395;28;20063;-24
2023/04/14 08:36:33;;;;;;;9.07;1.98;;;10.50;1.00;;;;;;5075729;28;20526;-24
2023/04/14 08:39:02;;;;;;;9.00;2.38;;;10.60;1.00;;;;;;5075890;28;20078;-24
2023/04/14 08:41:32;;;;;;;6.28;1.92;;;10.80;99.90;;;;;;5058221;28;20106;-24
2023/04/14 08:43:58;;;;;;;9.95;3.15;;;10.80;99.90;;;;;;5075551;28;20048;-23
2023/04/14 08:46:26;;;;;;;11.38;2.10;;;10.90;99.90;;;;;;5075731;28;20364;-23
2023/04/14 08:48:57;;;;;;;5.43;1.73;;;11.00;99.90;;;;;;5075708;28;20070;-23
2023/04/14 08:51:35;;;;;;;6.90;2.35;;;11.10;1.00;;;;;;5075722;28;20056;-23
2023/04/14 08:54:06;;;;;;;6.57;2.05;;;11.30;99.90;;;;;;5076477;28;20097;-22
2023/04/14 08:56:41;;;;;;;7.95;1.98;;;11.40;99.90;;;;;;5075288;28;20621;-21
2023/04/14 08:59:09;;;;;;;7.90;2.30;;;11.50;1.00;;;;;;5076050;28;20048;-21
2023/04/14 09:01:36;;;;;;;11.95;3.47;;;11.60;99.90;;;;;;5076260;28;20107;-22
2023/04/14 09:04:05;;;;;;;7.05;1.83;;;11.80;1.00;;;;;;5075337;28;20044;-22
2023/04/14 09:06:34;;;;;;;9.68;2.53;;;11.90;99.90;;;;;;5075600;28;20478;-22
2023/04/14 09:09:06;;;;;;;8.32;1.75;;;12.90;1.00;;;;;;5074309;28;20394;-22
2023/04/14 09:11:32;;;;;;;6.40;1.43;;;14.20;99.90;;;;;;5075627;28;20096;-22
2023/04/14 09:13:59;;;;;;;12.35;2.33;;;;;;;;;;5075269;28;20509;-23
2023/04/14 09:16:26;;;;;;;6.13;1.55;;;15.80;68.20;;;;;;5057558;28;20050;-22
2023/04/14 09:18:53;;;;;;;6.93;2.33;;;16.20;99.90;;;;;;5057480;28;20154;-22
2023/04/14 09:21:19;;;;;;;7.00;1.95;;;16.60;99.90;;;;;;5075134;28;20131;-22
2023/04/14 09:23:46;;;;;;;9.05;1.98;;;16.80;85.70;;;;;;5074999;28;20048;-22
2023/04/14 09:26:12;;;;;;;9.70;2.20;;;17.00;79.60;;;;;;5057048;28;20048;-22
2023/04/14 09:28:38;;;;;;;8.25;2.15;;;17.20;1.00;;;;;;5057283;28;20098;-21
2023/04/14 09:31:04;;;;;;;4.53;1.10;;;17.60;1.00;;;;;;5041100;28;20412;-22
2023/04/14 09:33:31;;;;;;;8.27;2.03;;;17.20;1.00;;;;;;5074496;28;20056;-22
2023/04/14 09:35:57;;;;;;;11.20;2.60;;;17.30;1.00;;;;;;5057110;28;20052;-22
2023/04/14 09:38:35;;;;;;;7.85;1.88;;;17.80;1.00;;;;;;5056896;28;20055;-22
2023/04/14 09:41:03;;;;;;;8.73;2.00;;;17.90;1.00;;;;;;5074763;28;20513;-22
2023/04/14 09:43:29;;;;;;;9.15;1.63;;;18.00;1.00;;;;;;5074234;28;20375;-22
2023/04/14 09:45:56;;;;;;;8.98;1.63;;;17.90;99.90;;;;;;5074572;28;20495;-22
2023/04/14 09:48:23;;;;;;;6.50;1.63;;;18.20;99.90;;;;;;5075074;28;20080;-22
2023/04/14 09:50:56;;;;;;;8.77;1.65;;;18.10;99.90;;;;;;5074514;28;20402;-22
2023/04/14 09:53:30;;;;;;;8.25;1.67;;;18.30;99.90;;;;;;5056820;28;20053;-22
2023/04/14 09:55:58;;;;;;;10.35;1.52;;;18.20;99.90;;;;;;5074354;28;20091;-22
2023/04/14 09:58:38;;;;;;;8.73;2.28;;;18.40;99.90;;;;;;5074298;28;20052;-22
2023/04/14 10:01:10;;;;;;;8.80;2.00;;;18.60;99.90;;;;;;5074292;28;20076;-22
2023/04/14 10:03:40;;;;;;;8.50;1.70;;;18.50;99.90;;;;;;5074239;28;20040;-21
2023/04/14 10:06:18;;;;;;;5.15;1.52;;;18.30;99.90;;;;;;5056706;28;20051;-22
2023/04/14 10:08:52;;;;;;;9.75;1.83;;;18.30;99.90;;;;;;5074196;28;20049;-22
2023/04/14 10:11:24;;;;;;;9.45;1.88;;;18.30;99.90;;;;;;5074173;28;20043;-21
2023/04/14 10:13:58;;;;;;;5.50;1.45;;;18.10;99.90;;;;;;5074085;28;20131;-22
2023/04/14 10:16:25;;;;;;;10.27;2.42;;;18.00;99.90;;;;;;5074028;28;20113;-22
2023/04/14 10:18:52;;;;;;;9.07;1.88;;;18.70;99.90;;;;;;5056871;28;20052;-22
2023/04/14 10:21:20;;;;;;;9.23;1.90;;;18.90;99.90;;;;;;5055622;28;20052;-22
2023/04/14 10:23:47;;;;;;;8.73;1.95;;;19.40;99.90;;;;;;5073565;28;20561;-22
2023/04/14 10:26:14;;;;;;;7.97;2.00;;;19.90;99.90;;;;;;5056144;28;20060;-22
2023/04/14 10:28:49;;;;;;;9.88;2.20;;;19.30;99.90;;;;;;5056265;28;20052;-22
2023/04/14 10:31:27;;;;;;;13.80;2.33;;;18.30;99.90;;;;;;5074216;28;20127;-21
2023/04/14 10:33:54;;;;;;;6.30;1.73;;;17.10;99.90;;;;;;5073698;28;20064;-22
2023/04/14 10:36:27;;;;;;;7.78;1.70;;;16.30;99.90;;;;;;5073829;28;20060;-22
2023/04/14 10:38:59;;;;;;;10.05;1.63;;;16.00;99.90;;;;;;5073733;28;20045;-21
2023/04/14 10:41:25;;;;;;;8.48;2.53;;;16.30;99.90;;;;;;5073641;28;20045;-21
2023/04/14 10:43:50;;;;;;;8.80;2.15;;;17.40;99.90;;;;;;5073873;28;20367;-22
2023/04/14 10:46:16;;;;;;;11.63;1.77;;;17.50;99.90;;;;;;5055703;28;20379;-22
2023/04/14 10:48:47;;;;;;;10.43;2.08;;;17.40;99.90;;;;;;5073889;28;20048;-21
2023/04/14 10:51:16;;;;;;;7.32;1.60;;;18.20;99.90;;;;;;5039419;28;20048;-22
2023/04/14 10:53:54;;;;;;;13.35;2.67;;;19.00;99.90;;;;;;5055628;28;20037;-22
2023/04/14 10:56:23;;;;;;;11.60;1.80;;;19.50;99.90;;;;;;5074193;28;20047;-22
2023/04/14 10:58:56;;;;;;;11.85;2.35;;;20.10;99.90;;;;;;5056746;28;20110;-22
2023/04/14 11:01:30;;;;;;;9.65;1.48;;;19.30;99.90;;;;;;5073812;28;20474;-22
2023/04/14 11:04:09;;;;;;;10.02;3.10;;;18.40;99.90;;;;;;5055441;28;20123;-24
2023/04/14 11:06:51;;;;;;;9.27;2.30;;;17.60;99.90;;;;;;5074328;28;20049;-23
2023/04/14 11:09:29;;;;;;;7.68;1.70;;;16.90;99.90;;;;;;5073457;28;20486;-24
2023/04/14 11:11:56;;;;;;;7.88;2.15;;;17.40;99.90;;;;;;5073386;28;20136;-23
2023/04/14 11:14:26;;;;;;;8.77;1.55;;;17.90;99.90;;;;;;5073636;28;20040;-24
2023/04/14 11:17:03;;;;;;;7.97;1.98;;;18.10;99.90;;;;;;5073320;28;20049;-23
2023/04/14 11:19:30;;;;;;;9.98;1.70;;;18.40;99.90;;;;;;5073084;28;20044;-23
2023/04/14 11:21:56;;;;;;;7.05;1.83;;;19.10;99.90;;;;;;5073319;28;20044;-24
2023/04/14 11:24:23;;;;;;;8.32;1.63;;;19.00;99.90;;;;;;5073789;28;20050;-23
2023/04/14 11:26:54;;;;;;;7.47;1.48;;;18.50;99.90;;;;;;5073205;28;20481;-24
2023/04/14 11:29:20;;;;;;;8.13;2.08;;;17.90;99.90;;;;;;5073187;28;20059;-23
2023/04/14 11:31:58;;;;;;;7.88;2.13;;;16.30;99.90;;;;;;5056412;28;20047;-23
2023/04/14 11:34:27;;;;;;;9.80;2.00;;;16.10;99.90;;;;;;5076669;28;20096;-23
2023/04/14 11:36:53;;;;;;;10.85;1.58;;;16.40;99.90;;;;;;5076924;28;20526;-23
2023/04/14 11:39:19;;;;;;;8.60;1.75;;;15.60;99.90;;;;;;5042515;28;20053;-23
2023/04/14 11:41:50;;;;;;;9.20;2.15;;;15.60;99.90;;;;;;5059779;28;20071;-24
2023/04/14 11:44:18;;;;;;;8.80;2.17;;;15.50;99.90;;;;;;5076842;28;20049;-23
2023/04/14 11:46:44;;;;;;;8.68;1.92;;;15.60;99.90;;;;;;5076822;28;20041;-23
2023/04/14 11:49:10;;;;;;;10.60;1.67;;;16.50;99.90;;;;;;5059550;28;20097;-23
2023/04/14 11:51:36;;;;;;;8.38;1.80;;;17.60;99.90;;;;;;5077431;28;20044;-24
2023/04/14 11:54:02;;;;;;;12.27;3.35;;;18.20;99.90;;;;;;5059337;28;20048;-24
2023/04/14 11:56:30;;;;;;;8.07;1.60;;;18.10;99.90;;;;;;5076599;28;20050;-24
2023/04/14 11:59:00;;;;;;;9.98;2.20;;;19.10;99.90;;;;;;5077142;28;20044;-23
2023/04/14 12:01:27;;;;;;;5.00;1.38;;;20.30;99.90;;;;;;5058901;28;20074;-23
2023/04/14 12:03:53;;;;;;;8.40;2.00;;;20.40;99.90;;;;;;5076414;28;20101;-23
2023/04/14 12:06:19;;;;;;;8.50;2.15;;;20.40;99.90;;;;;;5076427;28;20509;-23
2023/04/14 12:08:50;;;;;;;7.25;1.38;;;19.60;99.90;;;;;;5077137;28;20052;-23
2023/04/14 12:11:16;;;;;;;5.53;1.45;;;18.60;99.90;;;;;;5076614;28;20048;-24
2023/04/14 12:13:44;;;;;;;8.82;2.47;;;18.00;99.90;;;;;;5076199;28;20502;-23
2023/04/14 12:16:11;;;;;;;6.55;1.40;;;17.80;99.90;;;;;;5059269;28;20434;-23
2023/04/14 12:18:36;;;;;;;7.60;1.85;;;17.80;99.90;;;;;;5059207;28;20051;-24
2023/04/14 12:21:04;;;;;;;9.63;1.55;;;17.60;99.90;;;;;;5076483;28;20053;-23
2023/04/14 12:23:40;;;;;;;6.97;1.30;;;17.10;99.90;;;;;;5075941;28;20047;-23
2023/04/14 12:26:12;;;;;;;9.70;1.95;;;16.60;58.10;;;;;;5075829;28;20071;-23
2023/04/14 12:28:40;;;;;;;5.97;1.20;;;16.30;93.20;;;;;;5075847;28;20132;-24
2023/04/14 12:31:06;;;;;;;7.75;2.00;;;17.40;99.90;;;;;;5076519;28;20045;-23
2023/04/14 12:33:33;;;;;;;8.15;1.73;;;18.20;99.90;;;;;;5057978;28;20084;-24
2023/04/14 12:36:04;;;;;;;6.45;1.48;;;18.00;99.90;;;;;;5076372;28;20109;-23
2023/04/14 12:38:30;;;;;;;6.55;1.60;;;18.00;99.90;;;;;;5058270;28;20490;-24
2023/04/14 12:40:56;;;;;;;4.90;1.10;;;18.60;99.90;;;;;;5058091;28;20398;-23
2023/04/14 12:43:33;;;;;;;6.03;1.10;;;19.50;99.90;;;;;;5024788;28;20036;-23
2023/04/14 12:45:59;;;;;;;5.88;1.13;;;19.10;99.90;;;;;;5076383;28;20080;-23
2023/04/14 12:48:43;;;;;;;8.32;1.48;;;19.10;99.90;;;;;;5075599;28;20059;-23
2023/04/14 12:51:13;;;;;;;4.95;1.48;;;19.60;99.90;;;;;;5075660;28;20525;-24
2023/04/14 12:53:40;;;;;;;4.78;1.25;;;19.70;99.90;;;;;;5058360;28;20379;-23
2023/04/14 12:56:15;;;;;;;5.15;1.35;;;20.10;99.90;;;;;;5075432;28;20051;-24
2023/04/14 12:58:48;;;;;;;7.45;1.48;;;20.80;99.90;;;;;;5076038;28;20044;-24